Time;durP1;ratioP1;P1;durP2;ratioP2;P2;SDS_P1;SDS_P2;PMS_P1;PMS_P2;Temp;Humidity;BMP_temperature;BMP_pressure;BME280_temperature;BME280_humidity;BME280_pressure;Samples;Min_cycle;Max_cycle;Signal;HPM_P1;HPM_P2
2023/10/25 00:00:02;;;;;;;1.98;1.05;;;10.70;99.90;;;;;;5033735;28;20079;-75
2023/10/25 00:02:28;;;;;;;1.70;1.20;;;10.70;99.90;;;;;;5032346;28;20068;-74
2023/10/25 00:04:56;;;;;;;1.63;1.23;;;10.70;99.90;;;;;;5032261;28;20040;-74
2023/10/25 00:07:22;;;;;;;2.28;1.05;;;10.70;99.90;;;;;;5034330;28;20108;-75
2023/10/25 00:09:48;;;;;;;1.80;1.20;;;10.70;99.90;;;;;;5032312;28;20156;-74
2023/10/25 00:12:14;;;;;;;2.03;1.23;;;10.70;99.90;;;;;;5032125;28;20021;-74
2023/10/25 00:14:41;;;;;;;1.95;1.20;;;10.70;99.90;;;;;;5032260;28;20385;-74
2023/10/25 00:17:07;;;;;;;1.80;1.08;;;10.70;99.90;;;;;;5033459;28;20382;-74
2023/10/25 00:19:33;;;;;;;2.05;1.35;;;10.70;99.90;;;;;;5033369;28;20031;-75
2023/10/25 00:21:58;;;;;;;2.40;1.40;;;10.70;99.90;;;;;;5032231;28;20025;-74
2023/10/25 00:24:24;;;;;;;1.70;1.00;;;10.70;99.90;;;;;;5033373;28;20037;-74
2023/10/25 00:26:50;;;;;;;2.10;1.23;;;10.70;99.90;;;;;;5033271;28;20100;-74
2023/10/25 00:29:16;;;;;;;2.22;1.20;;;10.70;99.90;;;;;;5032612;28;20075;-75
2023/10/25 00:31:42;;;;;;;3.08;1.30;;;10.60;99.90;;;;;;5033315;28;20498;-74
2023/10/25 00:34:08;;;;;;;2.28;1.35;;;10.70;99.90;;;;;;5032103;28;20045;-75
2023/10/25 00:36:34;;;;;;;1.85;1.10;;;10.60;99.90;;;;;;5032366;28;20057;-74
2023/10/25 00:39:00;;;;;;;2.05;1.40;;;10.60;99.90;;;;;;5015612;28;20116;-74
2023/10/25 00:41:25;;;;;;;2.55;1.48;;;10.60;99.90;;;;;;5036084;28;20033;-74
2023/10/25 00:43:51;;;;;;;2.47;1.60;;;10.60;99.90;;;;;;5037208;28;20445;-74
2023/10/25 00:46:23;;;;;;;2.30;1.58;;;10.60;99.90;;;;;;5036300;28;20036;-74
2023/10/25 00:48:51;;;;;;;2.65;1.48;;;10.50;99.90;;;;;;5037099;28;20032;-75
2023/10/25 00:51:19;;;;;;;2.60;1.55;;;10.50;99.90;;;;;;5037030;28;20506;-75
2023/10/25 00:53:54;;;;;;;2.97;1.80;;;10.50;99.90;;;;;;5037236;28;20374;-75
2023/10/25 00:56:24;;;;;;;2.40;1.55;;;10.50;99.90;;;;;;5037100;28;20025;-75
2023/10/25 00:58:54;;;;;;;2.72;1.67;;;10.50;99.90;;;;;;5036902;28;20029;-75
2023/10/25 01:01:22;;;;;;;1.83;1.13;;;10.50;99.90;;;;;;5035852;28;20116;-75
2023/10/25 01:03:49;;;;;;;2.53;1.70;;;10.50;99.90;;;;;;5036884;28;20075;-75
2023/10/25 01:06:16;;;;;;;2.22;1.60;;;10.50;99.90;;;;;;5036734;28;20103;-75
2023/10/25 01:08:43;;;;;;;2.47;1.50;;;10.50;99.90;;;;;;5036989;28;20025;-75
2023/10/25 01:11:09;;;;;;;1.73;1.10;;;10.50;99.90;;;;;;5036608;28;20021;-75
2023/10/25 01:13:35;;;;;;;1.83;1.00;;;10.50;99.90;;;;;;5036688;28;20022;-75
2023/10/25 01:16:01;;;;;;;2.10;1.40;;;10.50;99.90;;;;;;5036889;28;20432;-75
2023/10/25 01:18:27;;;;;;;1.80;1.20;;;10.50;99.90;;;;;;5036562;28;20110;-75
2023/10/25 01:20:52;;;;;;;2.25;1.45;;;10.50;99.90;;;;;;5036532;28;20539;-75
2023/10/25 01:23:19;;;;;;;3.47;1.70;;;10.50;99.90;;;;;;5036461;28;20025;-75
2023/10/25 01:25:45;;;;;;;2.13;1.40;;;10.50;99.90;;;;;;5037146;28;20339;-75
2023/10/25 01:28:11;;;;;;;2.25;1.40;;;10.50;99.90;;;;;;5036634;28;20490;-75
2023/10/25 01:30:38;;;;;;;2.08;1.40;;;10.50;99.90;;;;;;5036306;28;20469;-75
2023/10/25 01:33:04;;;;;;;3.53;1.70;;;10.50;99.90;;;;;;5036346;28;20021;-75
2023/10/25 01:35:30;;;;;;;2.47;1.30;;;10.50;99.90;;;;;;5036447;28;20033;-74
2023/10/25 01:37:56;;;;;;;2.30;1.30;;;10.50;99.90;;;;;;5036218;28;20070;-75
2023/10/25 01:40:22;;;;;;;2.00;1.35;;;10.50;99.90;;;;;;5036119;28;20033;-75
2023/10/25 01:42:47;;;;;;;1.85;1.20;;;10.50;99.90;;;;;;5036116;28;20041;-75
2023/10/25 01:45:13;;;;;;;1.80;1.08;;;10.50;99.90;;;;;;5036274;28;20037;-75
2023/10/25 01:47:39;;;;;;;2.33;1.20;;;10.50;99.90;;;;;;5036064;28;20437;-75
2023/10/25 01:50:06;;;;;;;1.90;1.10;;;10.50;99.90;;;;;;5036022;28;20026;-75
2023/10/25 01:52:32;;;;;;;2.55;1.00;;;10.50;99.90;;;;;;5034337;28;20022;-75
2023/10/25 01:54:58;;;;;;;1.70;1.10;;;10.50;99.90;;;;;;5035837;28;20032;-75
2023/10/25 01:57:24;;;;;;;2.13;1.10;;;10.50;99.90;;;;;;5035908;28;20036;-75
2023/10/25 01:59:49;;;;;;;2.53;1.38;;;10.40;99.90;;;;;;5036101;28;20532;-75
2023/10/25 02:02:15;;;;;;;1.70;1.00;;;10.40;99.90;;;;;;5035746;28;20041;-75
2023/10/25 02:04:41;;;;;;;2.28;1.17;;;10.40;99.90;;;;;;5035702;28;20034;-75
2023/10/25 02:07:07;;;;;;;1.98;1.13;;;10.40;99.90;;;;;;5035693;28;20112;-75
2023/10/25 02:09:32;;;;;;;1.90;1.00;;;10.40;99.90;;;;;;5035772;28;20439;-75
2023/10/25 02:11:58;;;;;;;1.83;1.35;;;10.40;99.90;;;;;;5034445;28;20021;-75
2023/10/25 02:14:24;;;;;;;3.80;2.10;;;10.40;99.90;;;;;;5035614;28;20036;-75
2023/10/25 02:16:49;;;;;;;21.92;10.65;;;10.40;99.90;;;;;;5034624;28;20030;-75
2023/10/25 02:19:19;;;;;;;25.63;12.63;;;10.40;99.90;;;;;;5035637;28;20505;-75
2023/10/25 02:21:45;;;;;;;19.70;10.23;;;10.40;99.90;;;;;;5035354;28;20049;-75
2023/10/25 02:24:12;;;;;;;22.52;11.57;;;10.30;99.90;;;;;;5035723;28;20029;-75
2023/10/25 02:26:38;;;;;;;27.30;12.43;;;10.40;99.90;;;;;;5035528;28;20544;-75
2023/10/25 02:29:04;;;;;;;38.90;19.20;;;10.30;99.90;;;;;;5035513;28;20037;-74
2023/10/25 02:31:32;;;;;;;47.00;23.45;;;10.30;99.90;;;;;;5035086;28;20080;-75
2023/10/25 02:33:57;;;;;;;41.80;20.77;;;10.30;99.90;;;;;;5035457;28;20079;-75
2023/10/25 02:36:23;;;;;;;27.15;13.85;;;10.30;99.90;;;;;;5035085;28;20038;-75
2023/10/25 02:38:49;;;;;;;19.10;9.77;;;10.30;99.90;;;;;;5035064;28;20025;-74
2023/10/25 02:41:15;;;;;;;14.43;8.25;;;10.30;99.90;;;;;;5033750;28;20056;-75
2023/10/25 02:43:41;;;;;;;8.98;4.82;;;10.30;99.90;;;;;;5034947;28;20108;-74
2023/10/25 02:46:08;;;;;;;5.43;2.95;;;10.30;99.90;;;;;;5035637;28;20128;-74
2023/10/25 02:48:37;;;;;;;5.13;2.50;;;10.30;99.90;;;;;;5035339;28;20379;-75
2023/10/25 02:51:04;;;;;;;2.97;1.70;;;10.30;99.90;;;;;;5034822;28;20400;-75
2023/10/25 02:53:30;;;;;;;2.72;1.52;;;10.30;99.90;;;;;;5035266;28;20022;-75
2023/10/25 02:56:04;;;;;;;3.38;1.90;;;10.30;99.90;;;;;;5034803;28;20100;-75
2023/10/25 02:58:30;;;;;;;6.32;2.80;;;10.30;99.90;;;;;;5034643;28;20037;-75
2023/10/25 03:00:56;;;;;;;5.53;3.40;;;10.30;99.90;;;;;;5034578;28;20493;-75
2023/10/25 03:03:33;;;;;;;5.03;2.58;;;10.20;99.90;;;;;;5033189;28;20033;-75
2023/10/25 03:05:59;;;;;;;1.70;0.85;;;10.20;99.90;;;;;;5034885;28;20107;-75
2023/10/25 03:08:27;;;;;;;1.30;0.80;;;10.20;99.90;;;;;;5034525;28;20406;-75
2023/10/25 03:10:53;;;;;;;1.55;0.85;;;10.20;99.90;;;;;;5033135;28;20030;-75
2023/10/25 03:13:19;;;;;;;1.45;0.90;;;10.20;99.90;;;;;;5034387;28;20018;-75
2023/10/25 03:15:44;;;;;;;1.75;0.98;;;10.10;99.90;;;;;;5034684;28;20030;-75
2023/10/25 03:18:10;;;;;;;1.70;1.00;;;10.10;99.90;;;;;;5034267;28;20025;-75
2023/10/25 03:20:36;;;;;;;2.85;1.20;;;10.00;99.90;;;;;;5034241;28;20025;-75
2023/10/25 03:23:02;;;;;;;2.13;1.08;;;10.00;99.90;;;;;;5016923;28;20398;-75
2023/10/25 03:25:28;;;;;;;2.78;1.10;;;9.90;99.90;;;;;;5034113;28;20390;-75
2023/10/25 03:27:53;;;;;;;1.70;0.98;;;10.00;99.90;;;;;;5034440;28;20017;-75
2023/10/25 03:30:19;;;;;;;2.20;1.20;;;9.90;99.90;;;;;;5034201;28;20553;-75
2023/10/25 03:32:45;;;;;;;2.53;1.70;;;9.90;99.90;;;;;;5034251;28;20492;-75
2023/10/25 03:35:12;;;;;;;3.03;1.83;;;9.90;99.90;;;;;;5033032;28;20025;-75
2023/10/25 03:37:39;;;;;;;4.35;2.50;;;9.80;99.90;;;;;;5032689;28;20120;-75
2023/10/25 03:40:11;;;;;;;2.92;1.92;;;9.80;99.90;;;;;;5033425;28;20370;-75
2023/10/25 03:42:37;;;;;;;3.15;1.60;;;9.80;99.90;;;;;;5034195;28;20100;-74
2023/10/25 03:45:03;;;;;;;2.08;1.40;;;9.80;99.90;;;;;;5033866;28;20394;-75
2023/10/25 03:47:30;;;;;;;2.22;1.48;;;9.70;99.90;;;;;;5032940;28;20375;-74
2023/10/25 03:49:56;;;;;;;2.17;1.23;;;9.80;99.90;;;;;;5034292;28;20045;-75
2023/10/25 03:52:22;;;;;;;1.70;1.15;;;9.80;99.90;;;;;;5037092;28;20041;-74
2023/10/25 03:54:47;;;;;;;2.25;1.33;;;9.80;99.90;;;;;;5037013;28;20076;-74
2023/10/25 03:57:13;;;;;;;2.13;1.35;;;9.80;99.90;;;;;;5038791;28;20026;-74
2023/10/25 03:59:39;;;;;;;2.40;1.50;;;9.90;99.90;;;;;;5034806;28;20076;-74
2023/10/25 04:02:04;;;;;;;2.50;1.80;;;9.90;99.90;;;;;;5034023;28;20036;-74
2023/10/25 04:04:30;;;;;;;3.47;2.30;;;9.90;99.90;;;;;;5033831;28;20036;-73
2023/10/25 04:06:56;;;;;;;3.00;2.08;;;9.90;99.90;;;;;;5034043;28;20446;-73
2023/10/25 04:09:21;;;;;;;4.32;2.95;;;9.90;99.90;;;;;;5035256;28;20026;-74
2023/10/25 04:11:47;;;;;;;3.92;2.35;;;9.90;99.90;;;;;;5038211;28;20394;-74
2023/10/25 04:14:14;;;;;;;3.70;1.63;;;9.90;99.90;;;;;;5036763;28;20482;-74
2023/10/25 04:16:39;;;;;;;2.60;1.50;;;10.00;99.90;;;;;;5037541;28;20036;-74
2023/10/25 04:19:05;;;;;;;3.00;1.08;;;10.00;99.90;;;;;;5035491;28;20112;-74
2023/10/25 04:21:30;;;;;;;2.00;1.20;;;9.90;99.90;;;;;;5033651;28;20076;-74
2023/10/25 04:23:56;;;;;;;2.10;1.00;;;9.90;99.90;;;;;;5033351;28;20030;-74
2023/10/25 04:26:22;;;;;;;2.20;1.30;;;9.90;99.90;;;;;;5033523;28;20057;-74
2023/10/25 04:28:47;;;;;;;1.85;1.20;;;9.90;99.90;;;;;;5033300;28;20393;-74
2023/10/25 04:31:13;;;;;;;2.33;1.27;;;9.90;99.90;;;;;;5033206;28;20469;-74
2023/10/25 04:33:40;;;;;;;30.08;14.88;;;9.90;99.90;;;;;;5033503;28;20052;-74
2023/10/25 04:36:06;;;;;;;108.20;54.88;;;9.80;99.90;;;;;;5033282;28;20034;-74
2023/10/25 04:38:32;;;;;;;23.17;13.38;;;9.80;99.90;;;;;;5033511;28;20108;-74
2023/10/25 04:40:58;;;;;;;54.00;27.33;;;9.80;99.90;;;;;;5033134;28;20057;-74
2023/10/25 04:43:25;;;;;;;55.88;29.20;;;9.80;99.90;;;;;;5033122;28;20025;-74
2023/10/25 04:45:51;;;;;;;48.30;24.45;;;9.70;99.90;;;;;;5033199;28;20398;-74
2023/10/25 04:48:17;;;;;;;36.88;18.73;;;9.70;99.90;;;;;;5033189;28;20385;-75
2023/10/25 04:50:43;;;;;;;26.48;14.23;;;9.80;99.90;;;;;;5033130;28;20026;-75
2023/10/25 04:53:09;;;;;;;20.38;11.20;;;9.80;99.90;;;;;;5033100;28;20049;-74
2023/10/25 04:55:36;;;;;;;14.20;7.70;;;9.80;99.90;;;;;;5032346;28;20068;-75
2023/10/25 04:58:02;;;;;;;9.85;5.32;;;9.80;99.90;;;;;;5030774;28;20509;-75
2023/10/25 05:00:28;;;;;;;6.75;3.60;;;9.80;99.90;;;;;;5032924;28;20030;-74
2023/10/25 05:02:54;;;;;;;4.95;2.42;;;9.80;99.90;;;;;;5031808;28;20112;-75
2023/10/25 05:05:20;;;;;;;3.80;2.17;;;9.90;99.90;;;;;;5032833;28;20034;-74
2023/10/25 05:07:46;;;;;;;2.75;1.70;;;9.90;99.90;;;;;;5033009;28;20079;-75
2023/10/25 05:10:13;;;;;;;3.53;1.50;;;9.90;99.90;;;;;;5033040;28;20458;-75
2023/10/25 05:12:44;;;;;;;4.72;2.40;;;9.90;99.90;;;;;;5033244;28;20034;-74
2023/10/25 05:15:15;;;;;;;8.57;5.60;;;9.90;99.90;;;;;;5033159;28;20373;-75
2023/10/25 05:17:42;;;;;;;11.27;6.50;;;9.90;99.90;;;;;;5033173;28;20033;-74
2023/10/25 05:20:09;;;;;;;14.85;7.40;;;9.80;99.90;;;;;;5031548;28;20022;-75
2023/10/25 05:22:36;;;;;;;16.95;8.50;;;9.80;99.90;;;;;;5032778;28;20030;-75
2023/10/25 05:25:07;;;;;;;30.20;12.00;;;9.80;99.90;;;;;;5031781;28;20397;-75
2023/10/25 05:27:34;;;;;;;39.78;14.70;;;9.80;99.90;;;;;;5036488;28;20087;-75
2023/10/25 05:30:03;;;;;;;40.97;14.70;;;9.80;99.90;;;;;;5036550;28;20032;-75
2023/10/25 05:32:30;;;;;;;28.42;10.88;;;9.90;99.90;;;;;;5035067;28;20045;-75
2023/10/25 05:34:57;;;;;;;18.13;7.25;;;9.90;99.90;;;;;;5036329;28;20076;-75
2023/10/25 05:37:24;;;;;;;13.27;5.97;;;9.90;99.90;;;;;;5036329;28;20075;-75
2023/10/25 05:39:49;;;;;;;12.18;5.95;;;9.90;99.90;;;;;;5036457;28;20034;-75
2023/10/25 05:42:19;;;;;;;12.38;6.70;;;9.90;99.90;;;;;;5036326;28;20566;-75
2023/10/25 05:44:45;;;;;;;9.65;5.97;;;9.90;99.90;;;;;;5036124;28;20013;-75
2023/10/25 05:47:11;;;;;;;19.10;11.13;;;9.90;99.90;;;;;;5036154;28;20091;-75
2023/10/25 05:49:37;;;;;;;28.10;15.88;;;9.90;99.90;;;;;;5035008;28;20482;-75
2023/10/25 05:52:03;;;;;;;18.17;10.80;;;9.90;99.90;;;;;;5036165;28;20083;-75
2023/10/25 05:54:29;;;;;;;8.00;4.07;;;9.90;99.90;;;;;;5036056;28;20032;-75
2023/10/25 05:56:55;;;;;;;9.73;4.30;;;9.90;99.90;;;;;;5036449;28;20390;-74
2023/10/25 05:59:21;;;;;;;6.20;3.92;;;9.90;99.90;;;;;;5035802;28;20045;-75
2023/10/25 06:01:57;;;;;;;8.30;4.57;;;9.90;99.90;;;;;;5034648;28;20037;-75
2023/10/25 06:04:24;;;;;;;10.98;6.50;;;9.90;99.90;;;;;;5036531;28;20026;-75
2023/10/25 06:06:50;;;;;;;13.95;7.72;;;9.90;99.90;;;;;;5034786;28;20510;-75
2023/10/25 06:09:16;;;;;;;15.52;8.80;;;9.90;99.90;;;;;;5034304;28;20029;-75
2023/10/25 06:11:42;;;;;;;18.63;10.45;;;9.90;99.90;;;;;;5035651;28;20087;-75
2023/10/25 06:14:08;;;;;;;16.88;9.73;;;9.90;99.90;;;;;;5035897;28;20390;-75
2023/10/25 06:16:34;;;;;;;19.02;10.15;;;9.90;99.90;;;;;;5035906;28;20068;-74
2023/10/25 06:19:00;;;;;;;12.52;6.57;;;9.90;99.90;;;;;;5034435;28;20053;-74
2023/10/25 06:21:26;;;;;;;10.20;4.70;;;9.90;99.90;;;;;;5034572;28;20029;-74
2023/10/25 06:23:52;;;;;;;32.92;16.45;;;9.90;99.90;;;;;;5034315;28;20107;-75
2023/10/25 06:26:18;;;;;;;21.13;10.40;;;9.90;99.90;;;;;;5034043;28;20037;-75
2023/10/25 06:28:44;;;;;;;13.32;6.70;;;9.90;99.90;;;;;;5035351;28;20029;-74
2023/10/25 06:31:11;;;;;;;13.98;6.95;;;10.00;99.90;;;;;;5033984;28;20021;-74
2023/10/25 06:33:37;;;;;;;9.85;4.68;;;10.00;99.90;;;;;;5035572;28;20429;-75
2023/10/25 06:36:03;;;;;;;12.55;6.63;;;10.00;99.90;;;;;;5034066;28;20067;-74
2023/10/25 06:38:29;;;;;;;8.75;5.28;;;10.00;99.90;;;;;;5034975;28;20382;-75
2023/10/25 06:40:56;;;;;;;8.77;4.90;;;10.00;99.90;;;;;;5033923;28;20038;-74
2023/10/25 06:43:22;;;;;;;11.25;6.05;;;10.00;99.90;;;;;;5035711;28;20026;-75
2023/10/25 06:45:48;;;;;;;5.82;3.80;;;10.00;99.90;;;;;;5035054;28;20061;-71
2023/10/25 06:48:14;;;;;;;8.38;4.40;;;10.10;99.90;;;;;;5034934;28;20017;-72
2023/10/25 06:50:43;;;;;;;6.05;3.55;;;10.10;99.90;;;;;;5034869;28;20029;-72
2023/10/25 06:53:09;;;;;;;8.15;3.60;;;10.10;99.90;;;;;;5033557;28;20095;-72
2023/10/25 06:55:34;;;;;;;4.22;3.00;;;10.20;99.90;;;;;;5034852;28;20034;-73
2023/10/25 06:58:00;;;;;;;6.72;3.47;;;10.20;99.90;;;;;;5034640;28;20095;-73
2023/10/25 07:00:26;;;;;;;5.28;3.97;;;10.20;99.90;;;;;;5035241;28;20053;-73
2023/10/25 07:02:56;;;;;;;5.75;4.18;;;10.30;99.90;;;;;;5034663;28;20112;-72
2023/10/25 07:05:25;;;;;;;3.38;1.92;;;10.30;99.90;;;;;;5034506;28;20500;-73
2023/10/25 07:07:52;;;;;;;2.40;1.45;;;10.40;99.90;;;;;;5034563;28;20033;-73
2023/10/25 07:10:18;;;;;;;2.13;1.23;;;10.40;99.90;;;;;;5034402;28;20117;-72
2023/10/25 07:12:47;;;;;;;2.70;1.65;;;10.40;99.90;;;;;;5034512;28;20105;-72
2023/10/25 07:15:13;;;;;;;2.42;1.23;;;10.40;99.90;;;;;;5034383;28;20440;-73
2023/10/25 07:17:40;;;;;;;2.70;1.65;;;10.40;99.90;;;;;;5034339;28;20079;-73
2023/10/25 07:20:06;;;;;;;2.75;1.73;;;10.50;99.90;;;;;;5034291;28;20025;-73
2023/10/25 07:22:32;;;;;;;3.13;2.00;;;10.50;99.90;;;;;;5034334;28;20540;-73
2023/10/25 07:24:58;;;;;;;2.60;1.60;;;10.60;99.90;;;;;;5034205;28;20038;-73
2023/10/25 07:27:24;;;;;;;3.13;1.80;;;10.60;99.90;;;;;;5034562;28;20022;-72
2023/10/25 07:29:50;;;;;;;3.00;1.73;;;10.60;99.90;;;;;;5034071;28;20018;-72
2023/10/25 07:32:16;;;;;;;3.05;1.50;;;10.50;99.90;;;;;;5034384;28;20462;-73
2023/10/25 07:34:42;;;;;;;3.20;1.90;;;10.50;99.90;;;;;;5034035;28;20033;-73
2023/10/25 07:37:08;;;;;;;3.58;1.70;;;10.60;99.90;;;;;;5034064;28;20028;-73
2023/10/25 07:39:33;;;;;;;3.00;1.80;;;10.60;99.90;;;;;;5032593;28;20018;-72
2023/10/25 07:42:01;;;;;;;3.45;1.90;;;10.70;99.90;;;;;;5033944;28;20079;-72
2023/10/25 07:44:29;;;;;;;3.13;1.75;;;10.70;99.90;;;;;;5033874;28;20436;-73
2023/10/25 07:46:55;;;;;;;5.10;2.53;;;10.80;99.90;;;;;;5032629;28;20105;-72
2023/10/25 07:49:21;;;;;;;6.00;2.45;;;10.80;99.90;;;;;;5032938;28;20107;-72
2023/10/25 07:51:47;;;;;;;3.60;2.47;;;10.80;99.90;;;;;;5034363;28;20454;-73
2023/10/25 07:54:12;;;;;;;4.10;2.22;;;10.90;99.90;;;;;;5032558;28;20037;-73
2023/10/25 07:56:38;;;;;;;3.80;2.50;;;10.90;99.90;;;;;;5033687;28;20029;-73
2023/10/25 07:59:04;;;;;;;3.55;2.30;;;11.00;99.90;;;;;;5033627;28;20037;-73
2023/10/25 08:01:29;;;;;;;3.85;2.40;;;11.00;99.90;;;;;;5033522;28;20026;-73
2023/10/25 08:03:55;;;;;;;8.13;3.00;;;11.00;99.90;;;;;;5033856;28;20104;-73
2023/10/25 08:06:21;;;;;;;4.10;2.70;;;11.00;99.90;;;;;;5033462;28;20079;-73
2023/10/25 08:08:49;;;;;;;4.30;2.60;;;11.10;99.90;;;;;;5032470;28;20029;-73
2023/10/25 08:11:15;;;;;;;5.28;3.20;;;11.10;99.90;;;;;;5032624;28;20026;-72
2023/10/25 08:13:42;;;;;;;5.13;3.35;;;11.20;99.90;;;;;;5032688;28;20025;-73
2023/10/25 08:16:09;;;;;;;4.28;2.88;;;11.20;99.90;;;;;;5033443;28;20105;-73
2023/10/25 08:18:35;;;;;;;5.97;4.20;;;11.30;99.90;;;;;;5033457;28;20028;-73
2023/10/25 08:21:01;;;;;;;6.00;4.22;;;11.30;99.90;;;;;;5033301;28;20032;-73
2023/10/25 08:23:28;;;;;;;4.97;3.65;;;11.30;99.90;;;;;;5033367;28;20105;-73
2023/10/25 08:25:53;;;;;;;8.65;4.50;;;11.40;99.90;;;;;;5033278;28;20120;-73
2023/10/25 08:28:20;;;;;;;6.03;4.05;;;11.40;99.90;;;;;;5033307;28;20108;-73
2023/10/25 08:30:46;;;;;;;7.63;4.35;;;11.40;99.90;;;;;;5033456;28;20462;-73
2023/10/25 08:33:12;;;;;;;6.07;4.85;;;11.40;99.90;;;;;;5033398;28;20030;-72
2023/10/25 08:35:38;;;;;;;7.50;4.63;;;11.30;99.90;;;;;;5032075;28;20036;-73
2023/10/25 08:38:05;;;;;;;7.28;5.03;;;11.30;99.90;;;;;;5033176;28;20045;-73
2023/10/25 08:40:31;;;;;;;6.43;4.63;;;11.30;99.90;;;;;;5033678;28;20025;-73
2023/10/25 08:43:01;;;;;;;7.18;5.50;;;11.40;99.90;;;;;;5033232;28;20061;-73
2023/10/25 08:45:28;;;;;;;5.72;4.07;;;11.40;99.90;;;;;;5031932;28;20033;-73
2023/10/25 08:47:55;;;;;;;5.40;4.15;;;11.50;99.90;;;;;;5033203;28;20490;-73
2023/10/25 08:50:20;;;;;;;4.63;3.40;;;11.50;99.90;;;;;;5033149;28;20026;-73
2023/10/25 08:52:49;;;;;;;6.65;4.72;;;11.50;99.90;;;;;;5033190;28;20478;-73
2023/10/25 08:55:18;;;;;;;4.50;3.35;;;11.50;99.90;;;;;;5033095;28;20104;-73
2023/10/25 08:57:44;;;;;;;5.55;4.20;;;11.60;99.90;;;;;;5033211;28;20091;-73
2023/10/25 09:00:12;;;;;;;9.13;4.32;;;11.60;99.90;;;;;;5033422;28;20483;-73
2023/10/25 09:02:38;;;;;;;8.13;5.20;;;11.60;99.90;;;;;;5035839;28;20037;-73
2023/10/25 09:05:08;;;;;;;8.02;6.15;;;11.70;99.90;;;;;;5036737;28;20033;-73
2023/10/25 09:07:38;;;;;;;7.20;5.80;;;11.90;99.90;;;;;;5036808;28;20084;-74
2023/10/25 09:10:17;;;;;;;8.70;5.95;;;12.00;99.90;;;;;;5036719;28;20112;-73
2023/10/25 09:12:44;;;;;;;7.55;5.45;;;12.10;99.90;;;;;;5037044;28;20077;-74
2023/10/25 09:15:10;;;;;;;8.30;5.43;;;12.20;99.90;;;;;;5036674;28;20045;-74
2023/10/25 09:17:36;;;;;;;5.55;4.07;;;12.30;99.90;;;;;;5036643;28;20033;-74
2023/10/25 09:20:02;;;;;;;6.88;4.50;;;12.40;99.90;;;;;;5036859;28;20493;-73
2023/10/25 09:22:30;;;;;;;6.78;4.15;;;12.40;99.90;;;;;;5036783;28;20083;-74
2023/10/25 09:25:01;;;;;;;6.53;4.20;;;12.50;99.90;;;;;;5035137;28;20033;-74
2023/10/25 09:27:28;;;;;;;5.88;4.15;;;12.70;99.90;;;;;;5037062;28;20076;-74
2023/10/25 09:30:09;;;;;;;5.95;3.88;;;12.80;99.90;;;;;;5036304;28;20437;-73
2023/10/25 09:32:36;;;;;;;4.90;3.50;;;12.90;99.90;;;;;;5036383;28;20018;-74
2023/10/25 09:35:03;;;;;;;4.13;2.88;;;13.10;99.90;;;;;;5035013;28;20029;-74
2023/10/25 09:37:28;;;;;;;4.13;2.50;;;13.10;99.90;;;;;;5036253;28;20442;-74
2023/10/25 09:39:54;;;;;;;2.92;2.00;;;13.10;99.90;;;;;;5036477;28;20060;-74
2023/10/25 09:42:25;;;;;;;5.32;2.55;;;13.20;99.90;;;;;;5036716;28;20022;-74
2023/10/25 09:44:57;;;;;;;4.18;2.50;;;13.30;99.90;;;;;;5036490;28;20025;-74
2023/10/25 09:47:28;;;;;;;3.70;2.38;;;13.40;99.90;;;;;;5036418;28;20037;-74
2023/10/25 09:50:02;;;;;;;4.10;2.83;;;13.40;99.90;;;;;;5036326;28;20022;-73
2023/10/25 09:52:30;;;;;;;4.70;3.40;;;13.50;99.90;;;;;;5036050;28;20048;-74
2023/10/25 09:55:08;;;;;;;4.75;3.47;;;13.50;99.90;;;;;;5036228;28;20021;-74
2023/10/25 09:57:35;;;;;;;3.75;2.95;;;13.50;99.90;;;;;;5036098;28;20029;-74
2023/10/25 10:00:02;;;;;;;5.68;3.67;;;13.60;99.90;;;;;;5035789;28;20025;-73
2023/10/25 10:02:53;;;;;;;6.03;3.47;;;13.60;99.90;;;;;;5035882;28;20026;-74
2023/10/25 10:05:29;;;;;;;5.00;2.92;;;13.60;99.90;;;;;;5034524;28;20021;-74
2023/10/25 10:08:01;;;;;;;4.07;2.72;;;13.60;99.90;;;;;;5035773;28;20025;-74
2023/10/25 10:10:30;;;;;;;3.20;2.30;;;13.70;99.90;;;;;;5035750;28;20025;-74
2023/10/25 10:12:56;;;;;;;3.00;1.85;;;13.80;99.90;;;;;;5034737;28;20025;-74
2023/10/25 10:16:01;;;;;;;3.13;2.00;;;13.80;99.90;;;;;;5036176;28;20057;-74
2023/10/25 10:18:38;;;;;;;3.08;2.10;;;14.00;99.90;;;;;;5035570;28;20108;-73
2023/10/25 10:21:05;;;;;;;3.65;1.85;;;14.10;99.90;;;;;;5035427;28;20068;-73
2023/10/25 10:23:43;;;;;;;3.53;1.83;;;14.10;99.90;;;;;;5034204;28;20501;-74
2023/10/25 10:26:11;;;;;;;3.60;2.40;;;14.20;99.90;;;;;;5035550;28;20033;-74
2023/10/25 10:28:43;;;;;;;5.10;2.88;;;14.20;99.90;;;;;;5035913;28;20034;-74
2023/10/25 10:31:10;;;;;;;3.00;2.10;;;14.20;99.90;;;;;;5035292;28;20021;-73
2023/10/25 10:33:44;;;;;;;3.53;1.67;;;14.30;99.90;;;;;;5035563;28;20119;-74
2023/10/25 10:36:10;;;;;;;2.80;1.90;;;14.30;99.90;;;;;;5035185;28;20025;-74
2023/10/25 10:39:15;;;;;;;3.30;1.50;;;14.40;99.90;;;;;;5035897;28;20037;-74
2023/10/25 10:41:41;;;;;;;3.15;1.58;;;14.50;99.90;;;;;;5035110;28;20064;-74
2023/10/25 10:44:07;;;;;;;2.88;1.60;;;14.50;99.90;;;;;;5035031;28;20030;-74
2023/10/25 10:46:48;;;;;;;4.07;1.52;;;14.60;99.90;;;;;;5035151;28;20032;-73
2023/10/25 10:49:18;;;;;;;2.25;1.27;;;14.60;99.90;;;;;;5033667;28;20493;-73
2023/10/25 10:51:44;;;;;;;2.55;1.00;;;14.70;99.90;;;;;;5033648;28;20022;-74
2023/10/25 10:54:10;;;;;;;1.85;1.10;;;14.70;99.90;;;;;;5033695;28;20032;-74
2023/10/25 10:56:36;;;;;;;1.98;1.20;;;14.70;99.90;;;;;;5034832;28;20033;-74
2023/10/25 10:59:02;;;;;;;2.40;0.80;;;14.70;99.90;;;;;;5034703;28;20416;-74
2023/10/25 11:01:29;;;;;;;0.63;0.40;;;14.70;99.90;;;;;;5034665;28;20039;-75
2023/10/25 11:03:58;;;;;;;1.30;0.70;;;14.70;99.90;;;;;;5034669;28;20482;-74
2023/10/25 11:06:25;;;;;;;2.08;0.68;;;14.70;99.90;;;;;;5034897;28;20386;-75
2023/10/25 11:08:52;;;;;;;1.48;0.98;;;14.80;99.90;;;;;;5035097;28;20382;-74
2023/10/25 11:11:22;;;;;;;1.20;0.80;;;14.80;99.90;;;;;;5034494;28;20026;-74
2023/10/25 11:13:50;;;;;;;1.73;0.90;;;14.80;99.90;;;;;;5034483;28;20021;-75
2023/10/25 11:16:16;;;;;;;2.03;0.98;;;14.80;99.90;;;;;;5033259;28;20025;-75
2023/10/25 11:18:42;;;;;;;1.70;1.00;;;14.90;99.90;;;;;;5033126;28;20032;-75
2023/10/25 11:21:08;;;;;;;1.38;0.75;;;14.90;99.90;;;;;;5034338;28;20037;-74
2023/10/25 11:23:34;;;;;;;2.75;1.00;;;14.90;99.90;;;;;;5034316;28;20481;-75
2023/10/25 11:26:00;;;;;;;1.02;0.70;;;15.00;99.90;;;;;;5034769;28;20030;-74
2023/10/25 11:28:26;;;;;;;1.15;0.52;;;15.10;99.90;;;;;;5035158;28;20017;-74
2023/10/25 11:30:52;;;;;;;0.80;0.50;;;15.20;99.90;;;;;;5033545;28;20028;-74
2023/10/25 11:33:18;;;;;;;1.50;0.60;;;15.20;99.90;;;;;;5035577;28;20021;-75
2023/10/25 11:35:44;;;;;;;0.88;0.50;;;15.30;99.90;;;;;;5034413;28;20052;-75
2023/10/25 11:38:11;;;;;;;1.20;0.50;;;15.40;99.90;;;;;;5034046;28;20022;-75
2023/10/25 11:40:39;;;;;;;2.33;0.50;;;15.40;99.90;;;;;;5033929;28;20033;-74
2023/10/25 11:43:06;;;;;;;1.13;0.50;;;15.40;99.90;;;;;;5033964;28;20394;-74
2023/10/25 11:45:32;;;;;;;1.02;0.50;;;15.50;99.90;;;;;;5033808;28;20045;-75
2023/10/25 11:47:58;;;;;;;0.65;0.40;;;15.50;99.90;;;;;;5032730;28;20075;-75
2023/10/25 11:50:24;;;;;;;1.98;0.40;;;15.60;99.90;;;;;;5033885;28;20425;-74
2023/10/25 11:52:50;;;;;;;1.27;0.40;;;15.60;99.90;;;;;;5033991;28;20057;-74
2023/10/25 11:55:15;;;;;;;1.50;0.50;;;15.60;99.90;;;;;;5033718;28;20060;-74
2023/10/25 11:57:42;;;;;;;0.52;0.28;;;15.70;99.90;;;;;;5033518;28;20034;-74
2023/10/25 12:00:09;;;;;;;0.98;0.40;;;15.70;99.90;;;;;;5032686;28;20025;-74
2023/10/25 12:02:35;;;;;;;0.55;0.30;;;15.80;99.90;;;;;;5033629;28;20061;-74
2023/10/25 12:05:03;;;;;;;0.30;0.25;;;15.90;99.90;;;;;;5032297;28;20503;-74
2023/10/25 12:07:30;;;;;;;1.85;0.40;;;16.00;99.90;;;;;;5034149;28;20026;-74
2023/10/25 12:09:57;;;;;;;1.25;0.30;;;16.10;99.90;;;;;;5033502;28;20367;-74
2023/10/25 12:12:22;;;;;;;0.95;0.38;;;16.10;99.90;;;;;;5033548;28;20017;-74
2023/10/25 12:14:48;;;;;;;1.02;0.32;;;16.20;99.90;;;;;;5033509;28;20021;-74
2023/10/25 12:17:14;;;;;;;1.15;0.70;;;16.20;99.90;;;;;;5033544;28;20397;-74
2023/10/25 12:19:40;;;;;;;0.38;0.30;;;16.40;99.90;;;;;;5033735;28;20026;-74
2023/10/25 12:22:08;;;;;;;0.93;0.47;;;16.40;99.90;;;;;;5033431;28;20064;-74
2023/10/25 12:24:34;;;;;;;4.38;0.50;;;16.50;99.90;;;;;;5033702;28;20033;-74
2023/10/25 12:27:01;;;;;;;0.90;0.40;;;16.60;99.90;;;;;;5033332;28;20091;-74
2023/10/25 12:29:27;;;;;;;1.38;0.65;;;16.60;99.90;;;;;;5033490;28;20022;-74
2023/10/25 12:31:53;;;;;;;2.88;0.80;;;16.70;99.90;;;;;;5033616;28;20022;-74
2023/10/25 12:34:18;;;;;;;1.90;0.60;;;16.80;99.90;;;;;;5033292;28;20040;-74
2023/10/25 12:36:44;;;;;;;1.30;0.60;;;16.80;99.90;;;;;;5036296;28;20026;-74
2023/10/25 12:39:10;;;;;;;1.90;0.93;;;16.90;99.90;;;;;;5037332;28;20037;-74
2023/10/25 12:41:35;;;;;;;1.25;0.82;;;16.90;99.90;;;;;;5037377;28;20034;-74
2023/10/25 12:44:04;;;;;;;2.03;1.00;;;17.00;99.90;;;;;;5037245;28;20057;-74